Time;durP1;ratioP1;P1;durP2;ratioP2;P2;SDS_P1;SDS_P2;PMS_P1;PMS_P2;Temp;Humidity;BMP_temperature;BMP_pressure;BME280_temperature;BME280_humidity;BME280_pressure;Samples;Min_cycle;Max_cycle;Signal;HPM_P1;HPM_P2
2022/04/09 00:01:55;;;;;;;2.80;0.65;;;21.50;99.90;;;;;;5072151;28;20104;-73
2022/04/09 00:04:22;;;;;;;8.38;1.42;;;21.30;99.90;;;;;;5072627;28;20408;-72
2022/04/09 00:06:49;;;;;;;7.75;1.77;;;21.10;99.90;;;;;;5077361;28;20052;-73
2022/04/09 00:09:16;;;;;;;5.78;1.08;;;20.80;99.90;;;;;;5077451;28;20126;-74
2022/04/09 00:11:44;;;;;;;6.90;1.52;;;20.30;99.90;;;;;;5078705;28;20036;-73
2022/04/09 00:14:12;;;;;;;8.63;1.05;;;20.20;99.90;;;;;;5077418;28;20059;-73
2022/04/09 00:16:39;;;;;;;7.45;1.27;;;20.30;99.90;;;;;;5077215;28;20476;-74
2022/04/09 00:22:31;;;;;;;7.22;1.00;;;20.40;99.90;;;;;;5078950;28;20377;-73
2022/04/09 00:24:59;;;;;;;6.13;1.00;;;20.30;99.90;;;;;;5078560;28;20384;-73
2022/04/09 00:27:27;;;;;;;5.45;1.35;;;20.50;99.90;;;;;;5078585;28;20020;-73
2022/04/09 00:29:56;;;;;;;5.15;1.05;;;20.80;99.90;;;;;;5078405;28;20029;-74
2022/04/09 00:32:23;;;;;;;5.72;0.75;;;21.10;99.90;;;;;;5077168;28;20028;-76
2022/04/09 00:34:51;;;;;;;4.05;0.65;;;21.20;99.90;;;;;;5078356;28;20496;-76
2022/04/09 00:37:18;;;;;;;4.28;1.20;;;21.40;99.90;;;;;;5077344;28;20028;-76
2022/04/09 00:39:46;;;;;;;5.30;0.70;;;21.80;99.90;;;;;;5078416;28;20035;-76
2022/04/09 00:42:18;;;;;;;6.93;0.82;;;22.00;99.90;;;;;;5078426;28;20389;-75
2022/04/09 00:44:46;;;;;;;1.98;0.50;;;22.10;99.90;;;;;;5078510;28;20078;-77
2022/04/09 00:47:13;;;;;;;5.65;0.90;;;22.30;99.90;;;;;;5076882;28;20020;-76
2022/04/09 00:49:41;;;;;;;9.32;1.25;;;22.60;99.90;;;;;;5078377;28;20103;-75
2022/04/09 00:52:10;;;;;;;4.40;1.00;;;22.70;99.90;;;;;;5078183;28;20021;-76
2022/04/09 00:54:42;;;;;;;5.07;0.75;;;22.60;99.90;;;;;;5076867;28;20115;-76
2022/04/09 00:57:11;;;;;;;5.60;0.82;;;22.40;99.90;;;;;;5076718;28;20032;-76
2022/04/09 00:59:42;;;;;;;9.93;1.45;;;22.50;99.90;;;;;;5078231;28;20012;-76
2022/04/09 01:02:11;;;;;;;6.20;0.70;;;22.70;99.90;;;;;;5078185;28;20021;-76
2022/04/09 01:04:45;;;;;;;5.60;0.80;;;22.60;99.90;;;;;;5077983;28;20123;-76
2022/04/09 01:07:14;;;;;;;3.75;0.95;;;22.50;99.90;;;;;;5076811;28;20021;-73
2022/04/09 01:09:45;;;;;;;6.22;1.02;;;22.30;99.90;;;;;;5077141;28;20040;-75
2022/04/09 01:12:14;;;;;;;7.53;1.25;;;22.20;99.90;;;;;;5078173;28;20411;-74
2022/04/09 01:14:41;;;;;;;10.13;1.67;;;22.00;99.90;;;;;;5076773;28;20125;-75
2022/04/09 01:17:09;;;;;;;8.45;1.55;;;21.80;99.90;;;;;;5074372;28;20075;-75
2022/04/09 01:19:36;;;;;;;6.45;1.60;;;21.50;99.90;;;;;;5074859;28;20012;-74
2022/04/09 01:22:04;;;;;;;5.38;1.25;;;21.40;99.90;;;;;;5073409;28;20035;-76
2022/04/09 01:24:32;;;;;;;6.97;1.60;;;21.50;99.90;;;;;;5073413;28;20440;-74
2022/04/09 01:26:59;;;;;;;7.97;1.48;;;21.70;99.90;;;;;;5074580;28;20026;-75
2022/04/09 01:29:27;;;;;;;7.38;1.60;;;22.00;99.90;;;;;;5073298;28;20024;-74
2022/04/09 01:31:54;;;;;;;6.50;1.08;;;22.10;99.90;;;;;;5073143;28;20131;-75
2022/04/09 01:34:22;;;;;;;7.55;1.50;;;22.00;99.90;;;;;;5073038;28;20028;-73
2022/04/09 01:36:49;;;;;;;7.07;1.27;;;21.90;99.90;;;;;;5074193;28;20082;-75
2022/04/09 01:39:18;;;;;;;5.97;1.38;;;21.60;99.90;;;;;;5074517;28;20090;-74
2022/04/09 01:41:45;;;;;;;9.32;1.10;;;21.30;99.90;;;;;;5074273;28;20476;-74
2022/04/09 01:44:13;;;;;;;7.95;1.15;;;21.30;99.90;;;;;;5072824;28;20025;-74
2022/04/09 01:46:44;;;;;;;13.77;1.50;;;21.30;99.90;;;;;;5074173;28;20032;-74
2022/04/09 01:49:13;;;;;;;9.13;1.45;;;21.40;99.90;;;;;;5074292;28;20032;-74
2022/04/09 01:51:40;;;;;;;12.80;1.63;;;21.60;99.90;;;;;;5072974;28;20028;-74
2022/04/09 01:54:08;;;;;;;9.35;1.45;;;22.10;99.90;;;;;;5072929;28;20025;-74
2022/04/09 01:56:35;;;;;;;7.50;1.48;;;22.60;99.90;;;;;;5072877;28;20545;-74
2022/04/09 01:59:02;;;;;;;8.82;1.40;;;22.70;99.90;;;;;;5074031;28;20016;-74
2022/04/09 02:01:30;;;;;;;10.52;1.70;;;22.60;99.90;;;;;;5074125;28;20047;-74
2022/04/09 02:03:57;;;;;;;8.65;1.60;;;22.70;99.90;;;;;;5073640;28;20040;-73
2022/04/09 02:06:25;;;;;;;7.88;1.02;;;22.50;99.90;;;;;;5072582;28;20021;-73
2022/04/09 02:08:52;;;;;;;5.43;1.13;;;22.30;99.90;;;;;;5073883;28;20023;-75
2022/04/09 02:11:20;;;;;;;9.57;1.35;;;22.10;99.90;;;;;;5073835;28;20027;-74
2022/04/09 02:13:47;;;;;;;8.35;1.67;;;22.10;99.90;;;;;;5073679;28;20028;-74
2022/04/09 02:16:15;;;;;;;5.82;1.13;;;22.10;99.90;;;;;;5072541;28;20024;-74
2022/04/09 02:18:43;;;;;;;8.32;1.40;;;22.30;99.90;;;;;;5073612;28;20021;-75
2022/04/09 02:21:10;;;;;;;10.77;1.83;;;22.60;99.90;;;;;;5073719;28;20023;-74
2022/04/09 02:23:38;;;;;;;7.75;1.02;;;22.60;99.90;;;;;;5073658;28;20063;-74
2022/04/09 02:26:05;;;;;;;5.38;1.25;;;22.60;99.90;;;;;;5073580;28;20029;-74
2022/04/09 02:28:34;;;;;;;7.05;1.45;;;22.30;99.90;;;;;;5071450;28;20067;-75
2022/04/09 02:31:02;;;;;;;5.47;1.23;;;22.00;99.90;;;;;;5072079;28;20219;-75
2022/04/09 02:33:29;;;;;;;7.18;1.23;;;21.60;99.90;;;;;;5072009;28;20024;-75
2022/04/09 02:35:57;;;;;;;6.15;1.25;;;21.60;99.90;;;;;;5071982;28;20058;-75
2022/04/09 02:38:25;;;;;;;7.65;1.70;;;21.80;99.90;;;;;;5071896;28;20020;-74
2022/04/09 02:40:52;;;;;;;8.45;1.38;;;21.90;99.90;;;;;;5071958;28;20036;-74
2022/04/09 02:43:20;;;;;;;6.47;1.10;;;21.60;99.90;;;;;;5073197;28;20118;-74
2022/04/09 02:45:47;;;;;;;9.02;1.20;;;21.30;99.90;;;;;;5073050;28;20021;-75
2022/04/09 02:48:15;;;;;;;5.00;0.98;;;21.20;99.90;;;;;;5072973;28;20469;-74
2022/04/09 02:50:42;;;;;;;6.85;1.00;;;21.00;99.90;;;;;;5073134;28;20483;-74
2022/04/09 02:53:12;;;;;;;6.05;1.23;;;20.60;99.90;;;;;;5071772;28;20032;-74
2022/04/09 02:55:40;;;;;;;5.63;1.00;;;20.60;99.90;;;;;;5071599;28;20516;-74
2022/04/09 02:58:07;;;;;;;6.47;1.30;;;20.60;99.90;;;;;;5072829;28;20060;-74
2022/04/09 03:00:35;;;;;;;4.32;0.90;;;20.90;99.90;;;;;;5071466;28;20028;-74
2022/04/09 03:03:02;;;;;;;6.22;1.08;;;20.90;99.90;;;;;;5072812;28;20494;-74
2022/04/09 03:05:30;;;;;;;5.97;1.10;;;20.60;99.90;;;;;;5071207;28;20076;-75
2022/04/09 03:08:00;;;;;;;6.13;1.10;;;20.40;99.90;;;;;;5071365;28;20035;-74
2022/04/09 03:10:27;;;;;;;5.88;0.70;;;20.30;99.90;;;;;;5071159;28;20365;-74
2022/04/09 03:12:56;;;;;;;6.70;1.45;;;20.30;99.90;;;;;;5072595;28;20443;-74
2022/04/09 03:15:23;;;;;;;10.13;0.90;;;20.40;99.90;;;;;;5072378;28;20052;-74
2022/04/09 03:17:51;;;;;;;6.43;1.00;;;20.80;99.90;;;;;;5072555;28;20029;-74
2022/04/09 03:20:18;;;;;;;7.38;2.03;;;21.40;99.90;;;;;;5072425;28;20016;-74
2022/04/09 03:22:46;;;;;;;9.10;1.20;;;21.80;99.90;;;;;;5071082;28;20024;-75
2022/04/09 03:25:14;;;;;;;9.55;1.20;;;22.10;99.90;;;;;;5072352;28;20031;-74
2022/04/09 03:27:42;;;;;;;9.13;1.85;;;21.90;99.90;;;;;;5072352;28;20021;-74
2022/04/09 03:30:11;;;;;;;8.90;1.40;;;21.90;99.90;;;;;;5070956;28;20077;-76
2022/04/09 03:32:39;;;;;;;9.68;1.88;;;22.10;99.90;;;;;;5070893;28;20146;-73
2022/04/09 03:35:08;;;;;;;6.03;1.20;;;22.60;99.90;;;;;;5072124;28;20029;-76
2022/04/09 03:37:36;;;;;;;12.88;2.63;;;23.30;99.90;;;;;;5070832;28;20065;-76
2022/04/09 03:40:08;;;;;;;7.60;1.63;;;23.70;99.90;;;;;;5070027;28;20025;-75
2022/04/09 03:42:35;;;;;;;9.75;1.80;;;24.30;99.90;;;;;;5071036;28;20480;-74
2022/04/09 03:45:03;;;;;;;11.88;2.22;;;24.20;99.90;;;;;;5070958;28;20016;-75
2022/04/09 03:47:33;;;;;;;13.27;1.73;;;23.80;99.90;;;;;;5071030;28;20060;-74
2022/04/09 03:50:05;;;;;;;13.30;1.50;;;23.30;99.90;;;;;;5072302;28;20024;-76
2022/04/09 03:52:32;;;;;;;6.88;1.75;;;23.30;99.90;;;;;;5072275;28;20109;-74
2022/04/09 03:54:59;;;;;;;6.85;1.10;;;23.20;99.90;;;;;;5070707;28;20412;-75
2022/04/09 03:57:27;;;;;;;6.40;1.20;;;23.00;99.90;;;;;;5071957;28;20021;-74
2022/04/09 03:59:57;;;;;;;6.32;1.23;;;23.00;99.90;;;;;;5072111;28;20031;-74
2022/04/09 04:02:26;;;;;;;7.35;1.30;;;23.20;99.90;;;;;;5072208;28;20032;-74
2022/04/09 04:04:53;;;;;;;7.15;1.27;;;23.60;99.90;;;;;;5071738;28;20050;-75
2022/04/09 04:07:22;;;;;;;7.63;1.30;;;24.30;99.90;;;;;;5071791;28;20052;-75
2022/04/09 04:09:50;;;;;;;8.77;1.65;;;24.90;99.90;;;;;;5070642;28;20056;-75
2022/04/09 04:12:18;;;;;;;9.15;1.58;;;25.00;99.90;;;;;;5071938;28;20020;-75
2022/04/09 04:14:46;;;;;;;5.95;1.58;;;24.60;99.90;;;;;;5070508;28;20024;-74
2022/04/09 04:17:14;;;;;;;8.48;1.60;;;24.50;99.90;;;;;;5071695;28;20112;-74
2022/04/09 04:19:41;;;;;;;7.07;1.42;;;24.60;99.90;;;;;;5071930;28;20036;-75
2022/04/09 04:22:08;;;;;;;7.25;1.20;;;24.60;99.90;;;;;;5070472;28;20366;-75
2022/04/09 04:24:37;;;;;;;8.82;1.40;;;24.60;99.90;;;;;;5071858;28;20021;-74
2022/04/09 04:27:08;;;;;;;6.00;1.00;;;24.40;99.90;;;;;;5070483;28;20025;-76
2022/04/09 04:29:36;;;;;;;9.15;1.80;;;24.40;99.90;;;;;;5071824;28;20029;-76
2022/04/09 04:32:03;;;;;;;12.90;1.88;;;24.20;99.90;;;;;;5070439;28;20025;-75
2022/04/09 04:34:31;;;;;;;10.52;1.75;;;24.10;99.90;;;;;;5070479;28;20436;-74
2022/04/09 04:36:58;;;;;;;6.25;1.42;;;24.10;99.90;;;;;;5070312;28;20025;-77
2022/04/09 04:39:25;;;;;;;9.27;1.30;;;24.00;99.90;;;;;;5071743;28;20024;-74
2022/04/09 04:41:53;;;;;;;8.43;1.35;;;24.10;99.90;;;;;;5070217;28;20017;-77
2022/04/09 04:44:20;;;;;;;6.93;1.52;;;24.40;99.90;;;;;;5071706;28;20016;-75
2022/04/09 04:46:47;;;;;;;6.65;1.15;;;24.60;99.90;;;;;;5070138;28;20029;-74
2022/04/09 04:49:15;;;;;;;9.23;1.60;;;24.90;99.90;;;;;;5070188;28;20107;-74
2022/04/09 04:51:42;;;;;;;10.05;1.63;;;24.90;99.90;;;;;;5071921;28;20449;-75
2022/04/09 04:54:10;;;;;;;8.00;1.30;;;24.80;99.90;;;;;;5073983;28;20119;-75
2022/04/09 04:56:37;;;;;;;7.00;1.40;;;24.60;99.90;;;;;;5073856;28;20111;-75
2022/04/09 04:59:07;;;;;;;9.45;1.35;;;24.50;99.90;;;;;;5073909;28;20072;-76
2022/04/09 05:01:37;;;;;;;6.97;1.42;;;24.30;99.90;;;;;;5075567;28;20016;-74
2022/04/09 05:04:05;;;;;;;11.35;1.60;;;24.20;99.90;;;;;;5073592;28;20489;-74
2022/04/09 05:06:33;;;;;;;7.18;1.40;;;24.20;99.90;;;;;;5075194;28;20024;-74
2022/04/09 05:09:00;;;;;;;10.13;1.40;;;23.80;99.90;;;;;;5073803;28;20498;-77
2022/04/09 05:11:27;;;;;;;7.80;1.30;;;23.50;99.90;;;;;;5075098;28;20020;-74
2022/04/09 05:13:55;;;;;;;7.90;1.35;;;23.60;99.90;;;;;;5073451;28;20033;-76
2022/04/09 05:16:22;;;;;;;7.03;1.08;;;23.70;99.90;;;;;;5074950;28;20021;-76
2022/04/09 05:18:49;;;;;;;6.10;1.42;;;23.50;99.90;;;;;;5074940;28;20024;-76
2022/04/09 05:21:16;;;;;;;9.00;1.55;;;23.50;99.90;;;;;;5073705;28;20025;-76
2022/04/09 05:23:44;;;;;;;6.03;0.98;;;23.50;99.90;;;;;;5073460;28;20083;-76
2022/04/09 05:26:11;;;;;;;6.93;1.17;;;23.40;99.90;;;;;;5074894;28;20039;-75
2022/04/09 05:28:38;;;;;;;7.35;1.15;;;23.30;99.90;;;;;;5074729;28;20032;-76
2022/04/09 05:31:08;;;;;;;9.73;1.63;;;23.40;99.90;;;;;;5073480;28;20469;-75
2022/04/09 05:33:36;;;;;;;7.60;1.50;;;23.50;99.90;;;;;;5073565;28;20495;-74
2022/04/09 05:36:05;;;;;;;7.65;1.10;;;23.40;99.90;;;;;;5073355;28;20024;-74
2022/04/09 05:38:34;;;;;;;7.25;1.23;;;23.40;99.90;;;;;;5073309;28;20039;-74
2022/04/09 05:41:01;;;;;;;7.72;1.17;;;23.10;99.90;;;;;;5074640;28;20052;-74
2022/04/09 05:43:29;;;;;;;8.05;1.35;;;22.80;99.90;;;;;;5073184;28;20021;-75
2022/04/09 05:45:57;;;;;;;6.28;1.00;;;22.50;99.90;;;;;;5074347;28;20025;-75
2022/04/09 05:48:24;;;;;;;5.95;0.98;;;22.20;99.90;;;;;;5074225;28;20170;-72
2022/04/09 05:50:52;;;;;;;11.13;1.67;;;22.20;99.90;;;;;;5072934;28;20029;-75
2022/04/09 05:53:19;;;;;;;6.78;1.25;;;22.10;99.90;;;;;;5074333;28;20385;-75
2022/04/09 05:55:46;;;;;;;9.02;1.40;;;22.00;99.90;;;;;;5072902;28;20028;-75
2022/04/09 05:58:14;;;;;;;8.32;1.25;;;22.00;99.90;;;;;;5074094;28;20074;-75
2022/04/09 06:00:42;;;;;;;4.82;1.23;;;22.00;99.90;;;;;;5072924;28;20017;-74
2022/04/09 06:03:10;;;;;;;7.63;1.45;;;22.10;99.90;;;;;;5071982;28;20358;-75
2022/04/09 06:05:37;;;;;;;9.02;1.73;;;22.10;99.90;;;;;;5072584;28;20032;-74
2022/04/09 06:08:05;;;;;;;9.98;1.33;;;22.10;99.90;;;;;;5074154;28;20502;-75
2022/04/09 06:10:32;;;;;;;12.50;1.50;;;22.20;99.90;;;;;;5073933;28;20021;-74
2022/04/09 06:12:59;;;;;;;11.88;1.35;;;22.30;99.90;;;;;;5072629;28;20040;-72
2022/04/09 06:15:27;;;;;;;8.70;1.77;;;22.20;99.90;;;;;;5073884;28;20082;-72
2022/04/09 06:17:54;;;;;;;9.85;1.73;;;22.00;99.90;;;;;;5072414;28;20028;-71
2022/04/09 06:20:21;;;;;;;9.25;1.42;;;21.90;99.90;;;;;;5073783;28;20017;-73
2022/04/09 06:22:49;;;;;;;5.93;1.45;;;21.80;99.90;;;;;;5074049;28;20469;-74
2022/04/09 06:25:16;;;;;;;10.70;2.13;;;21.70;99.90;;;;;;5073634;28;20420;-73
2022/04/09 06:27:43;;;;;;;9.13;1.67;;;21.60;99.90;;;;;;5072272;28;20035;-72
2022/04/09 06:30:13;;;;;;;9.88;1.58;;;21.60;99.90;;;;;;5072119;28;20396;-73
2022/04/09 06:32:41;;;;;;;9.20;1.45;;;21.70;99.90;;;;;;5073470;28;20062;-74
2022/04/09 06:35:08;;;;;;;10.10;1.67;;;21.80;99.90;;;;;;5073481;28;20551;-74
2022/04/09 06:37:39;;;;;;;11.75;1.92;;;21.80;99.90;;;;;;5073363;28;20089;-73
2022/04/09 06:40:09;;;;;;;12.80;1.88;;;21.70;99.90;;;;;;5073362;28;20048;-73
2022/04/09 06:42:38;;;;;;;11.90;1.90;;;21.60;99.90;;;;;;5073697;28;20012;-76
2022/04/09 06:45:06;;;;;;;10.05;1.75;;;21.40;99.90;;;;;;5071920;28;20036;-73
2022/04/09 06:47:37;;;;;;;6.00;1.30;;;21.40;99.90;;;;;;5072209;28;20020;-75
2022/04/09 06:50:13;;;;;;;10.35;1.65;;;21.30;99.90;;;;;;5071920;28;20025;-73
2022/04/09 06:52:41;;;;;;;12.25;2.38;;;21.40;99.90;;;;;;5071804;28;20428;-74
2022/04/09 06:55:09;;;;;;;9.50;1.30;;;21.40;99.90;;;;;;5073057;28;20030;-74
2022/04/09 06:57:38;;;;;;;12.68;2.65;;;21.40;99.90;;;;;;5072699;28;20074;-73
2022/04/09 07:00:11;;;;;;;8.88;1.50;;;21.40;99.90;;;;;;5071515;28;20454;-74
2022/04/09 07:02:40;;;;;;;8.75;1.60;;;21.40;99.90;;;;;;5072999;28;20048;-73
2022/04/09 07:05:08;;;;;;;12.85;1.83;;;21.40;99.90;;;;;;5072860;28;20040;-74
2022/04/09 07:07:36;;;;;;;8.90;1.45;;;21.20;99.90;;;;;;5072695;28;20025;-74
2022/04/09 07:10:11;;;;;;;11.57;1.55;;;21.20;99.90;;;;;;5072719;28;20021;-74
2022/04/09 07:12:40;;;;;;;11.30;2.10;;;21.10;99.90;;;;;;5071513;28;20051;-74
2022/04/09 07:15:07;;;;;;;12.77;2.35;;;21.10;99.90;;;;;;5071223;28;20035;-73
2022/04/09 07:17:35;;;;;;;10.23;1.63;;;20.90;99.90;;;;;;5072339;28;20114;-74
2022/04/09 07:20:06;;;;;;;11.13;1.77;;;20.90;99.90;;;;;;5071131;28;20111;-73
2022/04/09 07:22:38;;;;;;;6.53;1.42;;;20.80;99.90;;;;;;5072486;28;20040;-74
2022/04/09 07:25:07;;;;;;;10.00;1.55;;;20.70;99.90;;;;;;5071153;28;20557;-74
2022/04/09 07:27:38;;;;;;;9.05;1.88;;;20.60;99.90;;;;;;5071146;28;20077;-74
2022/04/09 07:30:08;;;;;;;10.18;1.45;;;20.60;99.90;;;;;;5071127;28;20088;-72
2022/04/09 07:32:35;;;;;;;9.38;1.83;;;20.50;99.90;;;;;;5071072;28;20043;-73
2022/04/09 07:35:04;;;;;;;9.75;1.40;;;20.50;99.90;;;;;;5072512;28;20081;-73
2022/04/09 07:37:31;;;;;;;11.63;1.90;;;20.40;99.90;;;;;;5070849;28;20131;-73
2022/04/09 07:39:59;;;;;;;10.77;2.17;;;20.40;99.90;;;;;;5070925;28;20021;-73
2022/04/09 07:42:26;;;;;;;9.45;2.10;;;20.30;99.90;;;;;;5072114;28;20393;-74
2022/04/09 07:44:54;;;;;;;9.73;2.10;;;20.20;99.90;;;;;;5072287;28;20099;-73
2022/04/09 07:47:21;;;;;;;11.70;2.08;;;20.20;99.90;;;;;;5070787;28;20029;-73
2022/04/09 07:49:49;;;;;;;10.65;2.08;;;20.20;99.90;;;;;;5072155;28;20099;-75
2022/04/09 07:52:16;;;;;;;10.88;1.95;;;20.20;99.90;;;;;;5070817;28;20025;-74
2022/04/09 07:54:44;;;;;;;12.27;2.00;;;20.20;99.90;;;;;;5072104;28;20031;-74
2022/04/09 07:57:11;;;;;;;12.77;2.45;;;20.10;99.90;;;;;;5072216;28;20492;-72
2022/04/09 07:59:38;;;;;;;6.88;1.55;;;20.10;99.90;;;;;;5070743;28;20017;-73
2022/04/09 08:02:06;;;;;;;8.93;2.03;;;20.00;99.90;;;;;;5070608;28;20021;-73
2022/04/09 08:04:33;;;;;;;11.95;2.03;;;19.90;99.90;;;;;;5070387;28;20055;-74
2022/04/09 08:07:00;;;;;;;12.40;2.80;;;19.90;99.90;;;;;;5072003;28;20020;-73
2022/04/09 08:09:28;;;;;;;9.93;1.30;;;19.90;99.90;;;;;;5071769;28;20103;-74
2022/04/09 08:11:55;;;;;;;11.45;2.05;;;19.90;99.90;;;;;;5072012;28;20036;-75
2022/04/09 08:14:23;;;;;;;8.88;1.50;;;19.80;99.90;;;;;;5071994;28;20481;-74
2022/04/09 08:16:50;;;;;;;15.10;2.35;;;19.80;99.90;;;;;;5070434;28;20036;-74
2022/04/09 08:19:18;;;;;;;16.25;2.03;;;19.80;99.90;;;;;;5071926;28;20024;-73
2022/04/09 08:21:45;;;;;;;10.18;1.27;;;19.70;99.90;;;;;;5070572;28;20541;-75
2022/04/09 08:24:13;;;;;;;9.85;1.92;;;19.70;99.90;;;;;;5070511;28;20020;-74
2022/04/09 08:26:40;;;;;;;8.48;1.90;;;19.70;99.90;;;;;;5072387;28;20500;-73
2022/04/09 08:29:08;;;;;;;8.75;1.70;;;19.60;99.90;;;;;;5075678;28;20127;-73
2022/04/09 08:31:35;;;;;;;12.55;1.80;;;19.60;99.90;;;;;;5075728;28;20020;-73
2022/04/09 08:34:02;;;;;;;10.45;1.70;;;19.60;99.90;;;;;;5074414;28;20126;-72
2022/04/09 08:36:30;;;;;;;11.48;1.92;;;19.50;99.90;;;;;;5075656;28;20077;-72
2022/04/09 08:38:58;;;;;;;8.98;1.52;;;19.50;99.90;;;;;;5075678;28;20016;-73
2022/04/09 08:41:26;;;;;;;9.00;1.27;;;19.50;99.90;;;;;;5074271;28;20029;-72
2022/04/09 08:43:54;;;;;;;9.85;1.60;;;19.50;99.90;;;;;;5075597;28;20021;-72
2022/04/09 08:46:25;;;;;;;8.52;2.20;;;19.50;99.90;;;;;;5075500;28;20020;-72
2022/04/09 08:48:53;;;;;;;10.70;1.65;;;19.60;99.90;;;;;;5075331;28;20013;-72
2022/04/09 08:51:21;;;;;;;9.30;2.22;;;19.60;99.90;;;;;;5075278;28;20013;-72
2022/04/09 08:53:51;;;;;;;10.75;1.27;;;19.60;99.90;;;;;;5075306;28;20071;-73
2022/04/09 08:56:18;;;;;;;13.27;2.28;;;19.60;99.90;;;;;;5073710;28;20438;-73
2022/04/09 08:58:46;;;;;;;10.98;1.45;;;19.60;99.90;;;;;;5073835;28;20024;-73
2022/04/09 09:01:14;;;;;;;10.02;2.10;;;19.50;99.90;;;;;;5073916;28;20071;-73
2022/04/09 09:03:41;;;;;;;12.45;1.55;;;19.40;99.90;;;;;;5074850;28;20023;-73
2022/04/09 09:06:27;;;;;;;13.45;2.15;;;19.30;99.90;;;;;;5073794;28;20027;-72
2022/04/09 09:08:55;;;;;;;5.63;1.13;;;19.30;99.90;;;;;;5075104;28;20344;-72
2022/04/09 09:11:29;;;;;;;9.02;1.60;;;19.20;99.90;;;;;;5075189;28;20051;-72
2022/04/09 09:14:00;;;;;;;9.65;1.80;;;19.30;99.90;;;;;;5074985;28;20017;-71
2022/04/09 09:16:28;;;;;;;12.10;1.98;;;19.20;99.90;;;;;;5074922;28;20027;-72
2022/04/09 09:18:58;;;;;;;9.57;2.28;;;19.20;99.90;;;;;;5073500;28;20111;-72
2022/04/09 09:21:27;;;;;;;13.27;2.20;;;19.30;99.90;;;;;;5073529;28;20377;-71
2022/04/09 09:24:16;;;;;;;11.73;2.05;;;19.30;99.90;;;;;;5073255;28;20024;-72
2022/04/09 09:26:46;;;;;;;12.82;2.00;;;19.20;99.90;;;;;;5074709;28;20016;-71
2022/04/09 09:29:27;;;;;;;10.13;1.77;;;19.20;99.90;;;;;;5074722;28;20020;-71
2022/04/09 09:31:58;;;;;;;12.80;2.17;;;19.30;99.90;;;;;;5074685;28;20472;-73
2022/04/09 09:34:26;;;;;;;14.48;2.08;;;19.20;99.90;;;;;;5074592;28;20027;-72
2022/04/09 09:36:54;;;;;;;10.52;2.10;;;19.20;99.90;;;;;;5074049;28;20501;-72
2022/04/09 09:39:24;;;;;;;14.90;2.40;;;19.10;99.90;;;;;;5072239;28;20028;-74
2022/04/09 09:41:58;;;;;;;11.07;2.15;;;19.10;99.90;;;;;;5073020;28;20109;-76
2022/04/09 09:44:30;;;;;;;10.02;1.88;;;19.10;99.90;;;;;;5073056;28;20477;-74
2022/04/09 09:47:09;;;;;;;9.45;1.55;;;19.10;99.90;;;;;;5072865;28;20024;-74
2022/04/09 09:49:58;;;;;;;11.48;1.80;;;19.10;99.90;;;;;;5074193;28;20130;-72
2022/04/09 09:52:36;;;;;;;10.93;1.75;;;19.20;99.90;;;;;;5072936;28;20024;-73
2022/04/09 09:55:13;;;;;;;15.95;2.40;;;19.20;99.90;;;;;;5074125;28;20043;-73
2022/04/09 09:57:42;;;;;;;12.70;2.00;;;19.30;99.90;;;;;;5072850;28;20035;-72
2022/04/09 10:00:11;;;;;;;15.80;2.30;;;19.30;99.90;;;;;;5074147;28;20044;-73
2022/04/09 10:02:40;;;;;;;14.45;2.55;;;19.40;99.90;;;;;;5074408;28;20077;-73
2022/04/09 10:05:08;;;;;;;11.90;1.85;;;19.40;99.90;;;;;;5073691;28;20041;-73
2022/04/09 10:07:39;;;;;;;9.15;1.98;;;19.50;99.90;;;;;;5073957;28;20123;-73
2022/04/09 10:10:07;;;;;;;10.20;1.73;;;19.60;99.90;;;;;;5072521;28;20385;-73
2022/04/09 10:12:42;;;;;;;14.38;1.98;;;19.50;99.90;;;;;;5073789;28;20028;-73
2022/04/09 10:15:10;;;;;;;12.07;2.05;;;19.60;99.90;;;;;;5072404;28;20091;-73
2022/04/09 10:17:39;;;;;;;10.35;1.65;;;19.60;99.90;;;;;;5073715;28;20050;-72
2022/04/09 10:20:08;;;;;;;14.65;2.83;;;19.60;99.90;;;;;;5073715;28;20172;-72
2022/04/09 10:22:40;;;;;;;11.48;1.90;;;19.80;99.90;;;;;;5073656;28;20081;-72
2022/04/09 10:25:08;;;;;;;14.07;2.17;;;19.80;99.90;;;;;;5073601;28;20027;-73
2022/04/09 10:27:42;;;;;;;10.93;2.10;;;19.80;99.90;;;;;;5072217;28;20087;-72
2022/04/09 10:30:16;;;;;;;9.20;1.55;;;19.80;99.90;;;;;;5072239;28;20155;-72
2022/04/09 10:32:59;;;;;;;9.60;1.58;;;19.80;99.90;;;;;;5073573;28;20173;-72
2022/04/09 10:35:32;;;;;;;7.30;1.42;;;19.60;99.90;;;;;;5073408;28;20100;-72
2022/04/09 10:38:14;;;;;;;12.02;1.85;;;19.60;99.90;;;;;;5071947;28;20029;-73
2022/04/09 10:40:52;;;;;;;7.82;1.45;;;19.50;99.90;;;;;;5071971;28;20047;-73
2022/04/09 10:43:25;;;;;;;7.63;1.58;;;19.40;99.90;;;;;;5073423;28;20021;-72
2022/04/09 10:46:06;;;;;;;7.72;1.65;;;19.40;99.90;;;;;;5073141;28;20070;-72
2022/04/09 10:48:34;;;;;;;11.38;1.88;;;19.40;99.90;;;;;;5072841;28;20027;-73
2022/04/09 10:51:06;;;;;;;6.53;1.30;;;19.40;99.90;;;;;;5072961;28;20454;-73
2022/04/09 10:53:36;;;;;;;10.05;1.38;;;19.40;99.90;;;;;;5073074;28;20384;-73
2022/04/09 10:56:24;;;;;;;10.45;1.92;;;19.40;99.90;;;;;;5072996;28;20381;-73
2022/04/09 10:59:30;;;;;;;7.47;1.55;;;19.40;99.90;;;;;;5073080;28;20428;-73
2022/04/09 11:01:57;;;;;;;8.35;1.17;;;19.50;99.90;;;;;;5071515;28;20020;-73
2022/04/09 11:07:15;;;;;;;4.35;0.82;;;19.50;99.90;;;;;;5072903;28;20117;-72
2022/04/09 11:10:01;;;;;;;5.03;0.85;;;19.50;99.90;;;;;;5072923;28;20102;-72
2022/04/09 11:12:31;;;;;;;8.75;1.10;;;19.40;99.90;;;;;;5072827;28;20103;-73
2022/04/09 11:15:04;;;;;;;5.82;0.95;;;19.40;99.90;;;;;;5072753;28;20043;-73
2022/04/09 11:17:39;;;;;;;6.32;0.95;;;19.30;99.90;;;;;;5072606;28;20060;-72
2022/04/09 11:20:16;;;;;;;6.72;1.10;;;19.20;99.90;;;;;;5072687;28;20059;-72
2022/04/09 11:22:45;;;;;;;7.70;1.00;;;19.20;99.90;;;;;;5072746;28;20017;-72
2022/04/09 11:25:24;;;;;;;9.45;1.92;;;19.20;99.90;;;;;;5072569;28;20048;-73
2022/04/09 11:27:53;;;;;;;5.80;0.93;;;19.20;99.90;;;;;;5071185;28;20031;-73
2022/04/09 11:30:21;;;;;;;6.80;2.08;;;19.10;99.90;;;;;;5071142;28;20024;-73
2022/04/09 11:32:49;;;;;;;7.07;1.40;;;19.10;99.90;;;;;;5071114;28;20435;-73
2022/04/09 11:35:24;;;;;;;7.60;1.40;;;19.10;99.90;;;;;;5072389;28;20385;-72
2022/04/09 11:37:52;;;;;;;6.95;1.33;;;19.10;99.90;;;;;;5072288;28;20023;-72
2022/04/09 11:40:21;;;;;;;8.25;1.40;;;19.10;99.90;;;;;;5070984;28;20108;-72
2022/04/09 11:42:50;;;;;;;10.95;2.10;;;19.20;99.90;;;;;;5072292;28;20020;-72
2022/04/09 11:45:27;;;;;;;11.43;1.63;;;19.20;99.90;;;;;;5072244;28;20403;-71
2022/04/09 11:47:59;;;;;;;6.13;1.50;;;19.20;99.90;;;;;;5072557;28;20095;-72
2022/04/09 11:50:39;;;;;;;8.52;1.35;;;19.20;99.90;;;;;;5070899;28;20139;-71
2022/04/09 11:53:14;;;;;;;9.30;1.77;;;19.20;99.90;;;;;;5072302;28;20021;-72
2022/04/09 11:55:43;;;;;;;10.57;2.35;;;19.30;99.90;;;;;;5070766;28;20029;-72
2022/04/09 11:58:14;;;;;;;13.52;2.03;;;19.30;99.90;;;;;;5072006;28;20504;-73
2022/04/09 12:00:46;;;;;;;12.80;1.98;;;19.30;99.90;;;;;;5071309;28;20021;-72
2022/04/09 12:03:15;;;;;;;9.57;1.70;;;19.30;99.90;;;;;;5070691;28;20394;-72
2022/04/09 12:05:46;;;;;;;15.02;1.65;;;19.30;99.90;;;;;;5071774;28;20052;-72
2022/04/09 12:08:15;;;;;;;9.95;1.60;;;19.30;99.90;;;;;;5072019;28;20105;-72
2022/04/09 12:11:01;;;;;;;12.15;2.20;;;19.20;99.90;;;;;;5071923;28;20388;-71
2022/04/09 12:13:39;;;;;;;14.20;2.38;;;19.20;99.90;;;;;;5071949;28;20027;-71
2022/04/09 12:16:16;;;;;;;14.73;1.77;;;19.20;99.90;;;;;;5070413;28;20033;-71
2022/04/09 12:18:44;;;;;;;12.30;2.10;;;19.20;99.90;;;;;;5070062;28;20032;-72
2022/04/09 12:21:22;;;;;;;11.50;1.92;;;19.20;99.90;;;;;;5071810;28;20031;-71
2022/04/09 12:24:11;;;;;;;8.30;1.75;;;19.10;99.90;;;;;;5071868;28;20065;-71
2022/04/09 12:26:44;;;;;;;11.40;1.50;;;19.10;99.90;;;;;;5070401;28;20055;-71
2022/04/09 12:29:30;;;;;;;8.60;1.58;;;19.00;99.90;;;;;;5070461;28;20032;-71
2022/04/09 12:32:19;;;;;;;10.82;1.45;;;18.90;99.90;;;;;;5070430;28;20021;-70
2022/04/09 12:34:54;;;;;;;7.38;1.17;;;19.00;99.90;;;;;;5071726;28;20012;-71
2022/04/09 12:37:23;;;;;;;8.40;1.40;;;18.90;99.90;;;;;;5071737;28;20029;-71
2022/04/09 12:39:51;;;;;;;11.65;1.35;;;18.90;99.90;;;;;;5070325;28;20049;-70
2022/04/09 12:42:31;;;;;;;10.77;1.83;;;18.90;99.90;;;;;;5071671;28;20025;-71
2022/04/09 12:45:23;;;;;;;13.63;1.65;;;18.90;99.90;;;;;;5071615;28;20062;-70
2022/04/09 12:49:11;;;;;;;8.60;1.50;;;18.80;99.90;;;;;;5069502;27;20751;-72
2022/04/09 12:51:39;;;;;;;8.45;1.77;;;18.70;99.90;;;;;;5069489;28;20028;-71
2022/04/09 12:54:06;;;;;;;10.90;2.03;;;18.70;99.90;;;;;;5069565;28;20112;-73
2022/04/09 12:56:36;;;;;;;10.35;1.70;;;18.60;99.90;;;;;;5068060;28;20472;-72
2022/04/09 12:59:04;;;;;;;7.75;1.50;;;18.60;99.90;;;;;;5069388;28;20021;-71
2022/04/09 13:01:31;;;;;;;10.43;2.25;;;18.50;99.90;;;;;;5067971;28;20029;-72
2022/04/09 13:03:58;;;;;;;10.32;1.70;;;18.50;99.90;;;;;;5069251;28;20446;-71